Rockledge, Alabama
Current Conditions -  °F | °C
As of 2:15 PM on Wednesday 26 Nov 2014 (Local Time) from KGAD Reporting Station
Clear Clear  
Wind Chill: 55°   Ceiling: Unl
Heat Index: 55°   Visibility: 10mi
Dew Point: 27°   Wind: 8mph
Humidity: 33%   Direction: 250°WSW
Pressure: 30.08"   Gusts: NA
Location:  34.0771°N, 86.0689°W
Report Text: KGAD 262015Z 25007KT 10SM CLR 13/M03 A3008 RMK AO1
Loading
Personal Weather Stations






























Interactive Weather Map New forecast layout! Learn more

10-Day Weather Forecast

Advertisements
Track Severe Weather on mobile